Terminal Aerodrome Forecast
Issued by NWS

Home | Current Version | Previous Version | Graphics & Text | Print | Product List | Glossary On
Versions: 1 2 3 4 5 6 7 8 9 10 11 12 13 14 15 16 17 18 19 20
632
FTUS43 KABR 032015 AAA
TAFMBG
TAF AMD
KMBG 032015Z 0320/0418 29011KT P6SM OVC025
      TEMPO 0320/0321 1SM -SN
     FM032100 25005KT P6SM BKN050
     FM041000 29007KT P6SM SCT040
     FM041500 31009KT P6SM SCT100=

USA.gov is the U.S. government's official web portal to all federal, state and local government web resources and services.